Hub


Voltar

 INFORMAÇÕES METEOROLÓGICAS

METAR FOR SBML


ADDS - METARS form results

(1654 UTC 24 June 2019)
Data provider http://aviationweather.gov/metar/data/
 
METAR text: SBML 241600Z 30010KT CAVOK 26/14 Q1018
Conditions at: SBML (MARILIA , BR) observed 1600 UTC 24 June 2019
Temperature: 26.0°C (79°F)
Dewpoint: 14.0°C (57°F) [RH = 48%]
Pressure (altimeter): 30.06 inches Hg (1018.0 mb)
Winds: from the WNW (300 degrees) at 12 MPH (10 knots; 5.1 m/s)
Visibility: 6 or more miles (10+ km)
Ceiling: ceiling and visibility are OK
Clouds: unknown
Weather: no significant weather observed at this time


 MAPA DO AEROPORTO


 INFORMAÇÕES DA PISTA

Pista 3 Tamanho da pista 4921 ft Largura da pista 115 ft
Elevação da pista 0 ft Ranhura da pista 0 ft Proa da pista 0
Pista 21 Tamanho da pista 4921 ft Largura da pista 115 ft
Elevação da pista 0 ft Ranhura da pista 0 ft Proa da pista 0

 FREQUÊNCIAS DO AEROPORTO

Tipo AFIS Nome RDO Frequência 130.45 MHZ

 AUXÍLIOS DE NAVEGAÇÃO PRÓXIMOS AO AEROPORTO

Tipo NDB Nome Marilia Frequência 415 KHZ